Time;durP1;ratioP1;P1;durP2;ratioP2;P2;SDS_P1;SDS_P2;PMS_P1;PMS_P2;Temp;Humidity;BMP_temperature;BMP_pressure;BME280_temperature;BME280_humidity;BME280_pressure;Samples;Min_cycle;Max_cycle;Signal;HPM_P1;HPM_P2
2023/02/17 00:00:13;;;;;;;17.80;9.20;;;;;;;8.06;59.95;102120.54;107035;1268;25521;-58
2023/02/17 00:02:41;;;;;;;17.50;8.90;;;;;;;8.06;59.80;102120.71;107054;1271;23859;-57
2023/02/17 00:05:10;;;;;;;15.50;8.60;;;;;;;8.04;59.49;102122.59;106972;1271;25359;-57
2023/02/17 00:07:39;;;;;;;18.70;9.60;;;;;;;8.01;59.43;102119.45;107099;1268;23989;-58
2023/02/17 00:10:08;;;;;;;18.90;9.40;;;;;;;7.99;59.18;102115.64;107183;1266;22535;-59
2023/02/17 00:12:37;;;;;;;17.00;9.90;;;;;;;7.97;59.10;102110.25;107069;1269;24277;-58
2023/02/17 00:15:08;;;;;;;18.60;10.70;;;;;;;7.94;59.03;102109.01;106340;1271;1002902;-59
2023/02/17 00:17:39;;;;;;;14.90;10.80;;;;;;;7.93;58.87;102105.19;106848;1263;25344;-58
2023/02/17 00:20:08;;;;;;;15.50;10.50;;;;;;;7.92;58.51;102103.79;107072;1266;26582;-58
2023/02/17 00:22:36;;;;;;;18.10;10.50;;;;;;;7.90;58.25;102105.16;106630;1267;25245;-58
2023/02/17 00:25:05;;;;;;;16.30;11.20;;;;;;;7.87;58.21;102099.25;106722;1267;25066;-58
2023/02/17 00:27:34;;;;;;;16.10;10.70;;;;;;;7.83;58.14;102096.80;107078;1260;25371;-58
2023/02/17 00:30:02;;;;;;;17.60;10.50;;;;;;;7.81;58.14;102094.87;107037;1270;25441;-58
2023/02/17 00:32:31;;;;;;;14.40;10.10;;;;;;;7.80;58.04;102090.36;107046;1268;22611;-58
2023/02/17 00:35:00;;;;;;;17.00;10.90;;;;;;;7.78;57.76;102090.70;107007;1269;25449;-59
2023/02/17 00:37:29;;;;;;;15.30;11.10;;;;;;;7.74;57.76;102087.71;107056;1269;25446;-58
2023/02/17 00:39:58;;;;;;;16.90;11.70;;;;;;;7.70;57.47;102081.63;106851;1269;25395;-59
2023/02/17 00:42:27;;;;;;;21.20;13.30;;;;;;;7.67;57.57;102079.17;107047;1269;25416;-57
2023/02/17 00:45:00;;;;;;;17.70;11.50;;;;;;;7.66;57.66;102074.15;107027;1269;25373;-59
2023/02/17 00:47:28;;;;;;;17.60;10.60;;;;;;;7.64;57.55;102070.16;107016;1269;24250;-58
2023/02/17 00:49:57;;;;;;;20.50;11.50;;;;;;;7.65;57.59;102069.64;106802;1267;25380;-58
2023/02/17 00:52:27;;;;;;;23.20;12.10;;;;;;;7.65;57.51;102061.70;106138;1267;1003822;-58
2023/02/17 00:54:55;;;;;;;22.70;12.70;;;;;;;7.63;57.49;102064.45;106312;1271;1003639;-57
2023/02/17 00:57:25;;;;;;;18.40;11.80;;;;;;;7.61;57.40;102059.95;107159;1270;25375;-58
2023/02/17 00:59:53;;;;;;;15.50;11.60;;;;;;;7.58;57.37;102055.06;107126;1270;22526;-58
2023/02/17 01:02:22;;;;;;;15.30;11.20;;;;;;;7.53;57.52;102055.71;106888;1267;25420;-58
2023/02/17 01:04:50;;;;;;;15.30;12.10;;;;;;;7.50;57.59;102049.27;106908;1270;25557;-58
2023/02/17 01:07:19;;;;;;;15.50;11.10;;;;;;;7.50;57.58;102047.36;106128;1274;1003434;-59
2023/02/17 01:09:48;;;;;;;16.50;11.50;;;;;;;7.48;57.65;102043.02;105834;1275;1002965;-58
2023/02/17 01:12:17;;;;;;;15.50;12.00;;;;;;;7.45;57.72;102037.99;105977;1271;1003006;-58
2023/02/17 01:14:46;;;;;;;20.90;13.30;;;;;;;7.43;57.65;102032.79;106898;1271;25347;-58
2023/02/17 01:17:16;;;;;;;18.70;13.30;;;;;;;7.40;57.63;102032.08;107070;1267;24268;-58
2023/02/17 01:19:45;;;;;;;19.00;12.10;;;;;;;7.37;57.68;102024.78;106905;1267;25383;-58
2023/02/17 01:22:13;;;;;;;17.20;13.10;;;;;;;7.35;57.79;102024.77;107027;1268;26526;-58
2023/02/17 01:24:42;;;;;;;19.30;12.50;;;;;;;7.37;57.69;102018.73;107110;1266;25469;-58
2023/02/17 01:27:10;;;;;;;16.90;13.00;;;;;;;7.37;57.57;102023.58;107057;1266;25337;-58
2023/02/17 01:29:40;;;;;;;19.70;13.70;;;;;;;7.36;57.50;102019.59;107086;1271;25451;-58
2023/02/17 01:32:09;;;;;;;20.50;14.30;;;;;;;7.32;57.41;102021.11;106626;1273;25435;-58
2023/02/17 01:34:37;;;;;;;18.60;13.10;;;;;;;7.30;57.41;102022.46;106186;1272;1003063;-58
2023/02/17 01:37:06;;;;;;;17.70;13.10;;;;;;;7.26;57.53;102021.89;107025;1269;22530;-58
2023/02/17 01:39:38;;;;;;;19.10;13.60;;;;;;;7.25;57.49;102017.21;107103;1267;25300;-58
2023/02/17 01:42:14;;;;;;;18.30;13.80;;;;;;;7.24;57.42;102022.23;107040;1267;22563;-58
2023/02/17 01:45:17;;;;;;;19.50;14.20;;;;;;;7.23;57.18;102020.64;106975;1272;25374;-58
2023/02/17 01:47:53;;;;;;;19.70;13.80;;;;;;;7.20;57.16;102024.92;107109;1269;25422;-58
2023/02/17 01:50:24;;;;;;;19.40;13.70;;;;;;;7.18;57.10;102026.96;106294;1267;1003004;-59
2023/02/17 01:52:52;;;;;;;23.70;14.20;;;;;;;7.15;57.12;102031.24;106859;1274;24188;-58
2023/02/17 01:55:20;;;;;;;20.90;13.60;;;;;;;7.12;57.20;102024.31;107039;1267;25350;-58
2023/02/17 01:57:50;;;;;;;22.10;13.60;;;;;;;7.12;57.19;102023.27;107044;1267;25427;-58
2023/02/17 02:00:19;;;;;;;19.60;14.10;;;;;;;7.12;57.11;102022.23;106834;1274;25423;-58
2023/02/17 02:02:48;;;;;;;17.40;13.90;;;;;;;7.13;56.84;102021.39;106942;1267;24228;-58
2023/02/17 02:05:19;;;;;;;21.00;14.30;;;;;;;7.11;56.66;102018.27;107005;1269;25349;-58
2023/02/17 02:07:47;;;;;;;20.10;14.40;;;;;;;7.07;56.52;102017.69;106953;1268;22514;-58
2023/02/17 02:10:17;;;;;;;20.30;14.30;;;;;;;7.03;56.59;102014.88;106792;1266;25362;-58
2023/02/17 02:12:46;;;;;;;20.90;15.20;;;;;;;6.98;56.52;102008.95;106229;1271;1002872;-58
2023/02/17 02:15:20;;;;;;;23.80;15.90;;;;;;;6.93;56.58;102007.50;106254;1269;1003573;-58
2023/02/17 02:18:13;;;;;;;22.20;15.70;;;;;;;6.88;56.53;102002.09;106901;1269;24054;-59
2023/02/17 02:21:11;;;;;;;22.30;14.70;;;;;;;6.86;56.56;102002.39;106853;1268;25533;-58
2023/02/17 02:24:01;;;;;;;24.00;15.70;;;;;;;6.82;56.51;102000.98;106680;1267;25405;-58
2023/02/17 02:27:15;;;;;;;19.50;14.60;;;;;;;6.78;56.46;101992.63;106844;1269;25332;-58
2023/02/17 02:29:46;;;;;;;25.10;15.00;;;;;;;6.73;56.31;101993.08;106084;1276;23891;-58
2023/02/17 02:32:38;;;;;;;19.10;14.90;;;;;;;6.69;56.28;101999.58;106245;1277;24468;-58
2023/02/17 02:35:28;;;;;;;21.80;14.50;;;;;;;6.63;56.40;101999.15;105832;1274;1003502;-59
2023/02/17 02:38:01;;;;;;;21.90;14.90;;;;;;;6.59;56.39;101996.17;105214;1283;1003377;-58
2023/02/17 02:40:34;;;;;;;21.60;14.70;;;;;;;6.57;56.41;101996.66;106168;1279;25452;-58
2023/02/17 02:43:03;;;;;;;18.00;14.10;;;;;;;6.55;56.35;101989.56;105606;1282;1016403;-57
2023/02/17 02:45:34;;;;;;;19.60;14.30;;;;;;;6.52;56.21;101990.38;106268;1280;25306;-58
2023/02/17 02:48:02;;;;;;;19.60;14.60;;;;;;;6.48;56.23;101988.61;105960;1282;24294;-58
2023/02/17 02:50:47;;;;;;;20.20;14.40;;;;;;;6.42;56.14;101987.80;105900;1282;25377;-58
2023/02/17 02:53:43;;;;;;;20.30;15.10;;;;;;;6.36;56.20;101993.77;106027;1282;22556;-58
2023/02/17 02:56:37;;;;;;;21.00;14.40;;;;;;;6.31;56.25;102005.58;105991;1285;25613;-58
2023/02/17 02:59:39;;;;;;;19.20;14.50;;;;;;;6.29;56.26;101998.65;105912;1282;25511;-58
2023/02/17 03:02:36;;;;;;;20.60;14.50;;;;;;;6.29;56.15;101994.34;105141;1283;1003000;-58
2023/02/17 03:05:17;;;;;;;19.30;14.60;;;;;;;6.27;56.06;101995.17;105288;1282;1003011;-58
2023/02/17 03:08:07;;;;;;;20.90;14.80;;;;;;;6.23;56.01;101991.84;105930;1278;25607;-58
2023/02/17 03:10:50;;;;;;;19.30;15.00;;;;;;;6.18;55.88;101990.89;105125;1278;1003344;-57
2023/02/17 03:13:19;;;;;;;19.90;14.70;;;;;;;6.13;55.94;101991.34;105188;1285;1003112;-58
2023/02/17 03:15:48;;;;;;;22.30;14.40;;;;;;;6.08;55.98;101989.88;106132;1272;25436;-57
2023/02/17 03:18:17;;;;;;;21.00;14.90;;;;;;;6.05;56.04;101992.75;106480;1269;24289;-59
2023/02/17 03:20:53;;;;;;;20.30;14.40;;;;;;;6.03;56.07;101992.89;106930;1273;25393;-58
2023/02/17 03:23:22;;;;;;;19.90;14.30;;;;;;;6.00;56.10;101992.14;107142;1262;22526;-58
2023/02/17 03:25:50;;;;;;;21.80;14.70;;;;;;;5.98;55.83;101987.64;107184;1271;24268;-58
2023/02/17 03:28:19;;;;;;;17.80;13.90;;;;;;;5.94;55.81;101988.44;106987;1269;22533;-60
2023/02/17 03:30:48;;;;;;;22.30;15.50;;;;;;;5.89;55.91;101986.62;106116;1267;1003007;-58
2023/02/17 03:33:19;;;;;;;22.00;14.90;;;;;;;5.86;56.12;101983.47;106731;1270;25344;-57
2023/02/17 03:35:47;;;;;;;19.20;14.50;;;;;;;5.84;56.03;101982.56;106571;1272;24221;-58
2023/02/17 03:38:16;;;;;;;20.80;14.40;;;;;;;5.83;55.95;101980.84;106788;1275;25359;-58
2023/02/17 03:40:44;;;;;;;19.20;14.20;;;;;;;5.83;55.86;101983.91;106254;1270;1003045;-58
2023/02/17 03:43:13;;;;;;;18.70;14.40;;;;;;;5.81;55.75;101982.52;106197;1267;1002933;-58
2023/02/17 03:45:42;;;;;;;19.90;14.00;;;;;;;5.79;55.78;101984.85;106129;1257;1003679;-59
2023/02/17 03:48:16;;;;;;;20.10;14.40;;;;;;;5.74;55.70;101980.84;105864;1273;1003088;-59
2023/02/17 03:50:45;;;;;;;18.80;14.70;;;;;;;5.70;55.57;101975.41;106813;1271;25359;-58
2023/02/17 03:53:14;;;;;;;19.00;14.30;;;;;;;5.66;55.85;101974.83;107107;1267;22516;-59
2023/02/17 03:55:43;;;;;;;22.30;14.70;;;;;;;5.64;55.82;101971.87;106852;1270;25334;-58
2023/02/17 03:58:11;;;;;;;17.80;13.50;;;;;;;5.62;55.78;101971.15;107082;1256;24178;-59
2023/02/17 04:00:40;;;;;;;21.00;14.30;;;;;;;5.60;55.77;101972.14;106116;1270;1003092;-58
2023/02/17 04:03:11;;;;;;;19.40;14.60;;;;;;;5.59;55.63;101971.77;107017;1267;25454;-58
2023/02/17 04:05:40;;;;;;;18.30;14.00;;;;;;;5.56;55.41;101970.52;107112;1267;25506;-59
2023/02/17 04:08:08;;;;;;;17.60;13.00;;;;;;;5.51;55.49;101965.27;106304;1272;1003332;-59
2023/02/17 04:10:37;;;;;;;18.80;14.60;;;;;;;5.45;55.40;101960.51;107098;1269;25375;-58
2023/02/17 04:13:05;;;;;;;21.80;14.70;;;;;;;5.40;55.50;101955.09;106761;1267;22640;-58
2023/02/17 04:15:37;;;;;;;17.80;13.20;;;;;;;5.37;55.73;101955.53;107018;1267;25454;-58
2023/02/17 04:18:06;;;;;;;18.80;13.90;;;;;;;5.35;55.59;101957.21;106351;1267;1003291;-58
2023/02/17 04:20:35;;;;;;;19.30;13.10;;;;;;;5.33;55.37;101961.31;106867;1267;25367;-58
2023/02/17 04:23:03;;;;;;;18.40;13.00;;;;;;;5.30;55.51;101963.49;106827;1267;25403;-59
2023/02/17 04:25:35;;;;;;;18.60;14.00;;;;;;;5.27;55.46;101968.59;106890;1270;24214;-58
2023/02/17 04:28:04;;;;;;;19.50;14.60;;;;;;;5.22;55.34;101966.95;106763;1269;24281;-58
2023/02/17 04:30:33;;;;;;;20.40;14.60;;;;;;;5.17;55.38;101971.35;106975;1257;22535;-58
2023/02/17 04:33:03;;;;;;;18.90;13.90;;;;;;;5.12;55.59;101972.95;106964;1267;24357;-57
2023/02/17 04:35:31;;;;;;;18.30;14.10;;;;;;;5.08;55.77;101973.37;107117;1271;22531;-57
2023/02/17 04:38:01;;;;;;;17.60;13.60;;;;;;;5.06;55.66;101975.23;107072;1267;25359;-57
2023/02/17 04:40:30;;;;;;;20.50;14.20;;;;;;;5.04;55.64;101978.46;107040;1272;25362;-58
2023/02/17 04:42:59;;;;;;;20.10;14.00;;;;;;;5.02;55.63;101978.42;107149;1270;25375;-58
2023/02/17 04:45:28;;;;;;;19.60;14.20;;;;;;;5.00;55.48;101981.48;107044;1268;25825;-58
2023/02/17 04:47:56;;;;;;;22.20;14.70;;;;;;;4.95;55.62;101979.16;106908;1269;22690;-58
2023/02/17 04:50:25;;;;;;;19.20;14.70;;;;;;;4.91;55.61;101974.58;106083;1271;1003819;-58
2023/02/17 04:52:54;;;;;;;20.00;14.90;;;;;;;4.87;55.62;101976.73;106857;1270;22543;-58
2023/02/17 04:55:22;;;;;;;21.60;15.40;;;;;;;4.84;55.76;101979.09;106990;1272;24384;-58
2023/02/17 04:57:51;;;;;;;19.80;13.50;;;;;;;4.82;55.79;101978.70;107135;1262;25356;-58
2023/02/17 05:00:20;;;;;;;21.60;14.80;;;;;;;4.81;55.60;101980.75;107112;1271;25347;-58
2023/02/17 05:02:48;;;;;;;22.70;14.90;;;;;;;4.79;55.50;101979.50;107105;1270;22524;-58
2023/02/17 05:05:17;;;;;;;20.80;15.10;;;;;;;4.77;55.53;101979.11;107039;1273;25487;-58
2023/02/17 05:07:46;;;;;;;19.20;14.40;;;;;;;4.72;55.48;101983.66;106876;1267;22656;-58
2023/02/17 05:10:16;;;;;;;23.60;15.60;;;;;;;4.68;55.66;101986.98;106075;1275;1003113;-58
2023/02/17 05:12:45;;;;;;;22.20;15.70;;;;;;;4.62;55.67;101988.08;105957;1270;1003451;-57
2023/02/17 05:15:19;;;;;;;21.90;16.10;;;;;;;4.59;55.99;101986.79;106741;1267;25374;-58
2023/02/17 05:17:48;;;;;;;20.30;16.00;;;;;;;4.56;56.20;101986.21;106782;1267;23229;-58
2023/02/17 05:20:17;;;;;;;22.20;15.50;;;;;;;4.57;56.17;101988.65;107073;1270;25344;-58
2023/02/17 05:22:46;;;;;;;23.70;16.30;;;;;;;4.59;56.36;101988.52;107095;1271;25478;-57
2023/02/17 05:25:15;;;;;;;21.70;16.70;;;;;;;4.61;56.27;101987.71;106291;1267;1003212;-58
2023/02/17 05:27:44;;;;;;;23.20;16.80;;;;;;;4.61;56.05;101992.70;106824;1270;25354;-58
2023/02/17 05:30:13;;;;;;;22.50;17.10;;;;;;;4.60;56.10;101991.12;107074;1269;25468;-58
2023/02/17 05:32:44;;;;;;;22.70;16.30;;;;;;;4.59;56.29;101994.38;106648;1273;26643;-58
2023/02/17 05:35:13;;;;;;;25.80;17.60;;;;;;;4.59;56.46;101990.23;106043;1270;1003009;-58
2023/02/17 05:37:43;;;;;;;25.60;17.80;;;;;;;4.60;56.70;101987.86;106730;1270;25370;-58
2023/02/17 05:40:11;;;;;;;24.70;17.30;;;;;;;4.64;56.51;101986.05;106940;1267;24686;-57
2023/02/17 05:42:40;;;;;;;25.80;17.40;;;;;;;4.68;56.80;101986.99;106338;1271;1002591;-58
2023/02/17 05:45:09;;;;;;;27.00;18.10;;;;;;;4.58;56.94;101984.90;106843;1267;22644;-58
2023/02/17 05:47:37;;;;;;;28.10;19.30;;;;;;;4.53;57.32;101988.73;106798;1272;25538;-57
2023/02/17 05:50:06;;;;;;;31.50;20.70;;;;;;;4.53;57.40;101989.75;106996;1270;25380;-57
2023/02/17 05:52:35;;;;;;;28.10;20.00;;;;;;;4.53;57.65;101990.27;106265;1270;1003148;-57
2023/02/17 05:55:04;;;;;;;30.30;19.00;;;;;;;4.56;57.96;101989.13;107076;1267;25389;-58
2023/02/17 05:57:33;;;;;;;26.60;19.20;;;;;;;4.59;58.11;101993.68;107089;1266;22519;-58
2023/02/17 06:00:02;;;;;;;27.50;19.00;;;;;;;4.64;58.12;101991.53;107068;1267;25375;-57
2023/02/17 06:02:39;;;;;;;27.70;19.20;;;;;;;4.72;57.72;101987.95;107032;1253;25379;-57
2023/02/17 06:05:08;;;;;;;27.00;19.80;;;;;;;4.91;57.37;101995.04;107034;1267;24373;-57
2023/02/17 06:07:37;;;;;;;31.30;21.50;;;;;;;4.97;57.34;101992.25;106313;1274;1002883;-57
2023/02/17 06:10:07;;;;;;;29.70;22.20;;;;;;;5.02;57.32;101994.58;107027;1267;25416;-57
2023/02/17 06:12:36;;;;;;;31.00;21.30;;;;;;;5.06;57.50;101995.87;106666;1267;22534;-57
2023/02/17 06:15:05;;;;;;;31.40;21.00;;;;;;;5.10;57.60;101998.02;106904;1273;25338;-57
2023/02/17 06:17:33;;;;;;;27.30;20.30;;;;;;;5.17;57.63;101997.82;106947;1273;22514;-57
2023/02/17 06:20:02;;;;;;;29.50;22.00;;;;;;;5.25;57.81;101997.79;107171;1267;25410;-57
2023/02/17 06:22:30;;;;;;;27.60;21.50;;;;;;;5.33;57.65;102000.72;107098;1255;22769;-57
2023/02/17 06:24:59;;;;;;;33.60;23.30;;;;;;;5.41;57.76;102000.55;107103;1267;25375;-57
2023/02/17 06:27:28;;;;;;;34.10;23.20;;;;;;;5.51;57.84;102004.69;107073;1267;25359;-58
2023/02/17 06:29:57;;;;;;;30.30;22.90;;;;;;;5.64;57.96;102005.45;106817;1270;25507;-57
2023/02/17 06:32:26;;;;;;;31.20;22.70;;;;;;;5.79;57.80;102005.90;107096;1267;24316;-57
2023/02/17 06:34:55;;;;;;;30.60;23.40;;;;;;;5.96;57.40;102003.96;106841;1267;23127;-57
2023/02/17 06:37:23;;;;;;;31.00;22.60;;;;;;;6.14;57.12;102005.48;107084;1267;25356;-57
2023/02/17 06:39:52;;;;;;;32.50;23.30;;;;;;;6.30;56.79;102002.63;106312;1267;1003260;-57
2023/02/17 06:42:22;;;;;;;31.60;24.00;;;;;;;6.44;56.71;101995.79;106022;1267;1002871;-58
2023/02/17 06:44:54;;;;;;;32.30;24.00;;;;;;;6.58;56.43;101998.91;107030;1270;25481;-57
2023/02/17 06:47:22;;;;;;;31.60;23.40;;;;;;;6.70;56.36;102004.09;107059;1270;25459;-57
2023/02/17 06:53:14;;;;;;;32.10;22.70;;;;;;;6.96;56.13;102013.59;103764;1298;545030;-57
2023/02/17 06:55:43;;;;;;;29.90;23.80;;;;;;;7.07;56.08;102020.97;106106;1280;22535;-57
2023/02/17 06:58:13;;;;;;;30.20;22.40;;;;;;;7.21;55.92;102019.91;105652;1288;25370;-56
2023/02/17 07:00:42;;;;;;;31.40;24.40;;;;;;;7.36;55.69;102019.25;106221;1284;25360;-56
2023/02/17 07:03:10;;;;;;;31.70;24.00;;;;;;;7.48;55.60;102017.14;106325;1283;25392;-56
2023/02/17 07:05:39;;;;;;;28.30;22.30;;;;;;;7.60;55.34;102020.21;106122;1280;25485;-56
2023/02/17 07:08:08;;;;;;;30.80;21.60;;;;;;;7.70;54.92;102018.41;105963;1279;22562;-57
2023/02/17 07:10:37;;;;;;;28.90;22.80;;;;;;;7.76;54.75;102019.16;106123;1270;25408;-57
2023/02/17 07:13:08;;;;;;;33.20;24.40;;;;;;;7.80;54.66;102020.23;105801;1285;25506;-56
2023/02/17 07:15:37;;;;;;;29.60;22.00;;;;;;;7.84;54.79;102015.60;105913;1279;25310;-56
2023/02/17 07:18:05;;;;;;;28.60;22.30;;;;;;;7.88;54.64;102016.17;106389;1279;25362;-56
2023/02/17 07:20:54;;;;;;;30.70;22.60;;;;;;;7.92;54.52;102012.91;106062;1282;25369;-56
2023/02/17 07:23:23;;;;;;;29.10;23.10;;;;;;;7.95;54.47;102009.51;105286;1286;1003052;-56
2023/02/17 07:25:52;;;;;;;29.90;21.90;;;;;;;7.99;54.39;102012.98;106018;1285;26615;-58
2023/02/17 07:28:21;;;;;;;29.90;23.00;;;;;;;8.01;54.34;102015.43;106695;1272;25385;-57
2023/02/17 07:30:51;;;;;;;31.00;21.90;;;;;;;8.04;54.35;102018.04;106310;1277;25542;-57
2023/02/17 07:33:20;;;;;;;29.40;22.00;;;;;;;8.06;54.41;102019.96;106248;1278;25446;-57
2023/02/17 07:35:48;;;;;;;29.40;22.00;;;;;;;8.09;54.15;102023.95;105867;1274;1003187;-58
2023/02/17 07:38:17;;;;;;;28.50;22.30;;;;;;;8.07;54.00;102020.84;105956;1272;1003251;-58
2023/02/17 07:40:46;;;;;;;33.30;24.90;;;;;;;8.01;53.99;102022.68;105923;1272;1002888;-57
2023/02/17 07:43:14;;;;;;;37.80;26.30;;;;;;;7.96;53.98;102027.48;106360;1273;22661;-57
2023/02/17 07:45:43;;;;;;;32.80;24.80;;;;;;;7.94;53.78;102028.14;106463;1273;24224;-58
2023/02/17 07:48:12;;;;;;;29.70;23.00;;;;;;;7.90;53.32;102027.23;105912;1272;1015966;-58
2023/02/17 07:50:40;;;;;;;31.20;22.20;;;;;;;7.86;53.24;102025.30;106647;1275;25360;-57
2023/02/17 07:53:09;;;;;;;31.20;23.30;;;;;;;7.83;53.39;102023.89;106650;1270;25347;-58
2023/02/17 07:55:37;;;;;;;29.30;22.30;;;;;;;7.84;53.49;102027.52;106866;1270;25369;-58
2023/02/17 07:58:06;;;;;;;32.00;22.70;;;;;;;7.85;53.61;102021.83;106901;1270;25437;-58
2023/02/17 08:00:35;;;;;;;31.90;22.60;;;;;;;7.88;53.51;102029.46;106580;1274;25385;-57
2023/02/17 08:03:03;;;;;;;28.70;21.70;;;;;;;7.90;53.36;102025.70;106849;1269;25350;-58
2023/02/17 08:05:32;;;;;;;30.30;23.40;;;;;;;7.89;53.32;102029.48;106029;1271;1003707;-58
2023/02/17 08:13:36;;;;;;;30.70;22.70;;;;;;;7.76;53.73;102025.89;106549;1270;25378;-58
2023/02/17 08:16:06;;;;;;;28.90;22.60;;;;;;;7.73;53.80;102029.31;106534;1270;25415;-58
2023/02/17 08:18:35;;;;;;;30.60;22.20;;;;;;;7.69;54.03;102034.29;106669;1275;24255;-58
2023/02/17 08:21:04;;;;;;;28.80;22.10;;;;;;;7.64;54.00;102033.54;106645;1274;25389;-58
2023/02/17 08:23:34;;;;;;;28.00;21.70;;;;;;;7.62;54.12;102036.13;106746;1278;25378;-57
2023/02/17 08:26:03;;;;;;;30.70;23.30;;;;;;;7.62;54.17;102039.23;106720;1271;22546;-57
2023/02/17 08:28:32;;;;;;;32.80;22.60;;;;;;;7.62;54.19;102039.73;106012;1270;1003671;-57
2023/02/17 08:31:02;;;;;;;32.30;22.00;;;;;;;7.63;54.42;102043.38;106754;1270;25435;-57
2023/02/17 08:33:31;;;;;;;28.00;20.50;;;;;;;7.69;54.43;102038.09;106807;1271;25350;-57
2023/02/17 08:36:05;;;;;;;29.70;21.80;;;;;;;7.78;54.43;102033.51;106440;1259;25584;-57
2023/02/17 08:38:34;;;;;;;29.20;21.10;;;;;;;7.89;54.14;102034.83;106807;1270;22526;-57
2023/02/17 08:41:14;;;;;;;27.50;20.40;;;;;;;8.00;54.06;102035.10;106718;1276;25402;-57
2023/02/17 08:43:42;;;;;;;31.90;22.90;;;;;;;8.11;53.55;102030.20;106777;1271;22533;-57
2023/02/17 08:46:11;;;;;;;28.30;21.70;;;;;;;8.21;53.31;102027.00;106797;1275;25373;-57
2023/02/17 08:48:40;;;;;;;29.70;21.90;;;;;;;8.31;53.09;102023.99;106718;1271;25885;-57
2023/02/17 08:51:22;;;;;;;30.70;22.70;;;;;;;8.38;53.02;102024.21;106704;1270;24403;-57
2023/02/17 08:53:53;;;;;;;29.90;20.50;;;;;;;8.46;53.04;102023.42;106647;1276;22936;-57
2023/02/17 08:56:22;;;;;;;28.80;21.90;;;;;;;8.55;52.69;102027.11;106861;1272;25342;-57
2023/02/17 08:58:51;;;;;;;30.10;22.40;;;;;;;8.62;52.71;102023.86;106888;1270;24245;-57
2023/02/17 09:01:19;;;;;;;32.50;23.40;;;;;;;8.69;52.42;102023.59;106819;1270;23972;-57
2023/02/17 09:03:49;;;;;;;34.70;23.20;;;;;;;8.76;52.33;102029.98;106463;1270;25358;-58
2023/02/17 09:06:17;;;;;;;30.50;23.60;;;;;;;8.83;52.17;102030.75;106600;1276;23474;-57
2023/02/17 09:08:47;;;;;;;35.00;22.90;;;;;;;8.90;52.03;102029.05;106566;1271;25388;-57
2023/02/17 09:11:18;;;;;;;29.70;21.70;;;;;;;8.97;51.86;102029.60;106489;1271;25353;-57
2023/02/17 09:13:47;;;;;;;30.00;20.70;;;;;;;9.06;51.78;102028.44;105567;1274;1002882;-57
2023/02/17 09:16:17;;;;;;;29.60;21.60;;;;;;;9.13;51.46;102029.52;105912;1272;1003032;-57
2023/02/17 09:18:46;;;;;;;28.70;21.50;;;;;;;9.20;51.37;102028.33;106836;1256;23317;-58
2023/02/17 09:21:15;;;;;;;29.30;21.30;;;;;;;9.26;51.50;102029.23;106633;1273;23274;-57
2023/02/17 09:23:44;;;;;;;29.90;22.20;;;;;;;9.35;51.13;102029.77;106298;1281;25647;-57
2023/02/17 09:26:14;;;;;;;31.70;23.00;;;;;;;9.42;51.00;102025.81;106314;1275;25735;-57
2023/02/17 09:28:42;;;;;;;32.20;22.60;;;;;;;9.50;51.17;102027.90;106594;1273;24355;-57
2023/02/17 09:31:18;;;;;;;28.80;22.00;;;;;;;9.60;51.06;102035.55;106661;1278;25528;-57
2023/02/17 09:33:47;;;;;;;29.20;22.40;;;;;;;9.70;50.72;102033.86;106361;1276;24229;-57
2023/02/17 09:36:26;;;;;;;29.40;22.30;;;;;;;9.76;50.52;102026.08;106438;1277;24337;-57
2023/02/17 09:38:55;;;;;;;30.80;22.20;;;;;;;9.83;50.27;102019.67;106565;1274;22533;-57
2023/02/17 09:41:54;;;;;;;32.00;23.70;;;;;;;9.89;50.33;102011.02;106607;1273;25544;-57
2023/02/17 09:44:31;;;;;;;30.20;23.20;;;;;;;9.96;50.37;102008.60;106203;1281;24233;-57
2023/02/17 09:47:04;;;;;;;32.30;24.70;;;;;;;10.02;50.48;102004.42;105554;1278;1003151;-57
2023/02/17 09:49:43;;;;;;;33.10;23.90;;;;;;;10.09;50.28;102000.64;105935;1278;22703;-57
2023/02/17 09:52:42;;;;;;;32.90;24.30;;;;;;;10.18;50.23;102000.66;105940;1284;22578;-57
2023/02/17 09:55:23;;;;;;;34.70;25.30;;;;;;;10.28;50.10;101994.23;106057;1276;22535;-57
2023/02/17 09:57:58;;;;;;;39.20;25.00;;;;;;;10.37;49.96;101995.27;106139;1279;25366;-57
2023/02/17 10:00:33;;;;;;;34.90;24.50;;;;;;;10.43;49.71;101992.47;105336;1281;1003648;-57
2023/02/17 10:03:05;;;;;;;34.30;24.40;;;;;;;10.49;49.78;101984.83;105920;1280;25663;-57
2023/02/17 10:05:37;;;;;;;33.30;25.00;;;;;;;10.57;49.61;101978.05;106247;1277;24231;-57
2023/02/17 10:08:20;;;;;;;36.20;25.60;;;;;;;10.64;49.43;101975.08;106304;1277;25355;-57
2023/02/17 10:11:16;;;;;;;36.40;25.60;;;;;;;10.69;49.21;101972.11;105614;1277;1003121;-57
2023/02/17 10:13:45;;;;;;;37.50;28.10;;;;;;;10.72;49.08;101964.83;105868;1283;25519;-57
2023/02/17 10:16:20;;;;;;;36.20;26.30;;;;;;;10.76;48.85;101960.64;105072;1283;1003011;-57
2023/02/17 10:18:57;;;;;;;37.30;27.10;;;;;;;10.77;48.72;101957.69;105169;1281;1003604;-57
2023/02/17 10:21:28;;;;;;;36.70;26.10;;;;;;;10.74;48.85;101949.54;106177;1278;25280;-56
2023/02/17 10:23:56;;;;;;;34.20;24.30;;;;;;;10.73;48.92;101944.52;106345;1275;22553;-56
2023/02/17 10:26:43;;;;;;;35.90;27.50;;;;;;;10.72;48.89;101937.56;106252;1283;25376;-56
2023/02/17 10:29:29;;;;;;;36.20;26.00;;;;;;;10.70;48.95;101933.94;106353;1276;23877;-56
2023/02/17 10:32:03;;;;;;;33.80;24.90;;;;;;;10.66;49.03;101931.70;106354;1282;24254;-57
2023/02/17 10:34:36;;;;;;;35.70;25.30;;;;;;;10.62;49.07;101926.16;105716;1275;1003914;-57
2023/02/17 10:37:17;;;;;;;34.80;25.30;;;;;;;10.55;48.95;101919.93;105567;1270;1014714;-57
2023/02/17 10:39:47;;;;;;;37.50;25.00;;;;;;;10.46;49.31;101921.17;106458;1276;22636;-57
2023/02/17 10:42:23;;;;;;;34.80;24.90;;;;;;;10.44;49.39;101921.70;106203;1276;25397;-56
2023/02/17 10:44:53;;;;;;;33.90;24.90;;;;;;;10.43;49.42;101920.84;106512;1276;25606;-56
2023/02/17 10:47:21;;;;;;;34.90;25.60;;;;;;;10.42;49.57;101917.38;106474;1275;25033;-56
2023/02/17 10:49:52;;;;;;;34.70;23.90;;;;;;;10.42;49.49;101917.02;106418;1275;25370;-57
2023/02/17 10:52:23;;;;;;;34.10;24.60;;;;;;;10.42;49.46;101918.23;106855;1266;22562;-56
2023/02/17 10:54:53;;;;;;;34.90;25.60;;;;;;;10.39;49.47;101922.05;106673;1271;23935;-57
2023/02/17 10:57:22;;;;;;;36.10;25.80;;;;;;;10.37;49.57;101922.23;106793;1266;22685;-56
2023/02/17 10:59:54;;;;;;;35.30;25.70;;;;;;;10.37;49.69;101920.84;106758;1273;25378;-56
2023/02/17 11:02:39;;;;;;;32.70;24.40;;;;;;;10.34;49.81;101923.11;106720;1269;25432;-56
2023/02/17 11:05:18;;;;;;;36.10;24.90;;;;;;;10.24;50.02;101920.70;106726;1268;24267;-57
2023/02/17 11:07:48;;;;;;;35.30;24.70;;;;;;;10.19;50.24;101924.17;106980;1266;22552;-57
2023/02/17 11:10:25;;;;;;;34.40;25.30;;;;;;;10.20;50.29;101922.96;106873;1269;25368;-56
2023/02/17 11:12:56;;;;;;;34.30;24.90;;;;;;;10.24;50.21;101926.08;107058;1266;24232;-56
2023/02/17 11:15:42;;;;;;;31.70;25.60;;;;;;;10.26;50.12;101930.40;107197;1267;25586;-57
2023/02/17 11:18:20;;;;;;;38.70;26.50;;;;;;;10.28;50.20;101925.38;107029;1266;25341;-56
2023/02/17 11:20:49;;;;;;;38.20;26.90;;;;;;;10.29;50.10;101920.70;107053;1253;22526;-56
2023/02/17 11:23:22;;;;;;;35.30;25.20;;;;;;;10.32;50.22;101918.79;106896;1267;24220;-56
2023/02/17 11:26:15;;;;;;;38.80;26.70;;;;;;;10.37;50.27;101918.08;106959;1267;25512;-57
2023/02/17 11:28:43;;;;;;;35.80;24.80;;;;;;;10.45;50.24;101916.14;107092;1267;25535;-56
2023/02/17 11:31:29;;;;;;;35.50;25.30;;;;;;;10.56;50.15;101919.41;106840;1266;25364;-56
2023/02/17 11:33:57;;;;;;;38.50;27.60;;;;;;;10.70;49.77;101915.72;107046;1257;24393;-57